sensor_id;sensor_type;location;lat;lon;timestamp;P1;P2;P0
26185;PMS7003;20067;48.764;9.176;2023-07-24T00:00:14;15.50;14.75;7.50
26185;PMS7003;20067;48.764;9.176;2023-07-24T00:02:40;15.25;13.50;7.00
26185;PMS7003;20067;48.764;9.176;2023-07-24T00:05:05;13.25;13.00;7.00
26185;PMS7003;20067;48.764;9.176;2023-07-24T00:07:31;14.00;12.50;6.00
26185;PMS7003;20067;48.764;9.176;2023-07-24T00:09:57;18.25;13.25;5.50
26185;PMS7003;20067;48.764;9.176;2023-07-24T00:12:22;13.50;11.50;7.00
26185;PMS7003;20067;48.764;9.176;2023-07-24T00:14:51;15.50;14.00;6.75
26185;PMS7003;20067;48.764;9.176;2023-07-24T00:17:17;13.25;13.00;5.00
26185;PMS7003;20067;48.764;9.176;2023-07-24T00:19:43;15.00;14.75;7.00
26185;PMS7003;20067;48.764;9.176;2023-07-24T00:22:09;12.50;12.25;7.00
26185;PMS7003;20067;48.764;9.176;2023-07-24T00:24:36;14.50;13.00;7.00
26185;PMS7003;20067;48.764;9.176;2023-07-24T00:27:03;13.75;13.75;7.25
26185;PMS7003;20067;48.764;9.176;2023-07-24T00:29:29;20.25;15.75;8.00
26185;PMS7003;20067;48.764;9.176;2023-07-24T00:31:54;18.00;14.50;8.25
26185;PMS7003;20067;48.764;9.176;2023-07-24T00:34:20;18.00;14.00;8.00
26185;PMS7003;20067;48.764;9.176;2023-07-24T00:36:46;16.75;13.50;7.50
26185;PMS7003;20067;48.764;9.176;2023-07-24T00:39:13;17.75;16.00;8.75
26185;PMS7003;20067;48.764;9.176;2023-07-24T00:41:39;19.50;14.00;7.50
26185;PMS7003;20067;48.764;9.176;2023-07-24T00:44:05;14.75;13.00;7.00
26185;PMS7003;20067;48.764;9.176;2023-07-24T00:46:31;17.50;14.75;6.00
26185;PMS7003;20067;48.764;9.176;2023-07-24T00:48:58;15.00;14.25;7.00
26185;PMS7003;20067;48.764;9.176;2023-07-24T00:51:27;18.50;14.00;6.00
26185;PMS7003;20067;48.764;9.176;2023-07-24T00:54:00;15.00;12.50;7.00
26185;PMS7003;20067;48.764;9.176;2023-07-24T00:56:27;14.50;11.75;6.00
26185;PMS7003;20067;48.764;9.176;2023-07-24T00:58:54;15.50;15.00;6.00
26185;PMS7003;20067;48.764;9.176;2023-07-24T01:01:21;18.75;15.00;7.50
26185;PMS7003;20067;48.764;9.176;2023-07-24T01:03:48;15.00;13.50;7.00
26185;PMS7003;20067;48.764;9.176;2023-07-24T01:06:15;14.75;13.75;6.75
26185;PMS7003;20067;48.764;9.176;2023-07-24T01:08:42;17.00;15.50;7.25
26185;PMS7003;20067;48.764;9.176;2023-07-24T01:13:42;12.50;12.50;7.00
26185;PMS7003;20067;48.764;9.176;2023-07-24T01:16:15;16.75;15.00;8.00
26185;PMS7003;20067;48.764;9.176;2023-07-24T01:18:44;14.25;13.75;7.00
26185;PMS7003;20067;48.764;9.176;2023-07-24T01:21:11;16.50;14.25;7.00
26185;PMS7003;20067;48.764;9.176;2023-07-24T01:26:23;16.00;13.50;7.00
26185;PMS7003;20067;48.764;9.176;2023-07-24T01:28:50;19.00;14.50;6.25
26185;PMS7003;20067;48.764;9.176;2023-07-24T01:31:17;14.75;14.75;7.00
26185;PMS7003;20067;48.764;9.176;2023-07-24T01:33:43;15.00;13.25;7.00
26185;PMS7003;20067;48.764;9.176;2023-07-24T01:36:09;15.25;13.00;6.00
26185;PMS7003;20067;48.764;9.176;2023-07-24T01:38:35;12.75;12.00;6.00
26185;PMS7003;20067;48.764;9.176;2023-07-24T01:41:03;13.25;13.00;6.00
26185;PMS7003;20067;48.764;9.176;2023-07-24T01:43:29;17.25;13.25;7.00
26185;PMS7003;20067;48.764;9.176;2023-07-24T01:45:55;12.00;10.75;6.00
26185;PMS7003;20067;48.764;9.176;2023-07-24T01:48:22;16.50;12.25;7.00
26185;PMS7003;20067;48.764;9.176;2023-07-24T01:50:49;16.00;14.00;7.00
26185;PMS7003;20067;48.764;9.176;2023-07-24T01:53:15;16.50;13.75;7.00
26185;PMS7003;20067;48.764;9.176;2023-07-24T01:55:42;11.25;11.00;4.25
26185;PMS7003;20067;48.764;9.176;2023-07-24T01:58:07;14.75;12.25;6.00
26185;PMS7003;20067;48.764;9.176;2023-07-24T02:00:33;12.75;11.00;4.00
26185;PMS7003;20067;48.764;9.176;2023-07-24T02:02:59;14.50;12.00;6.00
26185;PMS7003;20067;48.764;9.176;2023-07-24T02:05:25;14.75;12.75;6.75
26185;PMS7003;20067;48.764;9.176;2023-07-24T02:07:51;10.75;10.00;5.75
26185;PMS7003;20067;48.764;9.176;2023-07-24T02:10:16;16.25;13.75;7.00
26185;PMS7003;20067;48.764;9.176;2023-07-24T02:12:43;14.50;13.00;6.00
26185;PMS7003;20067;48.764;9.176;2023-07-24T02:15:09;16.25;14.00;7.75
26185;PMS7003;20067;48.764;9.176;2023-07-24T02:17:35;18.50;13.25;7.50
26185;PMS7003;20067;48.764;9.176;2023-07-24T02:20:00;15.00;12.75;7.00
26185;PMS7003;20067;48.764;9.176;2023-07-24T02:22:26;12.75;12.75;5.50
26185;PMS7003;20067;48.764;9.176;2023-07-24T02:24:52;12.50;11.25;4.75
26185;PMS7003;20067;48.764;9.176;2023-07-24T02:27:30;17.75;13.75;6.00
26185;PMS7003;20067;48.764;9.176;2023-07-24T02:29:59;14.25;10.75;5.75
26185;PMS7003;20067;48.764;9.176;2023-07-24T02:32:25;17.00;14.00;6.00
26185;PMS7003;20067;48.764;9.176;2023-07-24T02:34:51;13.00;11.75;6.00
26185;PMS7003;20067;48.764;9.176;2023-07-24T02:37:19;13.00;12.75;6.25
26185;PMS7003;20067;48.764;9.176;2023-07-24T02:39:46;15.75;13.00;6.00
26185;PMS7003;20067;48.764;9.176;2023-07-24T02:42:12;13.25;12.50;6.00
26185;PMS7003;20067;48.764;9.176;2023-07-24T02:44:37;13.00;13.00;5.50
26185;PMS7003;20067;48.764;9.176;2023-07-24T02:47:03;17.50;14.50;6.75
26185;PMS7003;20067;48.764;9.176;2023-07-24T02:49:30;12.00;11.75;6.00
26185;PMS7003;20067;48.764;9.176;2023-07-24T02:51:56;16.00;13.25;6.25
26185;PMS7003;20067;48.764;9.176;2023-07-24T02:54:22;14.00;14.00;6.25
26185;PMS7003;20067;48.764;9.176;2023-07-24T02:56:58;15.25;14.00;7.00
26185;PMS7003;20067;48.764;9.176;2023-07-24T02:59:23;13.50;13.00;6.50
26185;PMS7003;20067;48.764;9.176;2023-07-24T03:01:49;11.50;11.00;6.00
26185;PMS7003;20067;48.764;9.176;2023-07-24T03:04:15;14.25;14.00;7.25
26185;PMS7003;20067;48.764;9.176;2023-07-24T03:06:41;12.50;11.50;6.00
26185;PMS7003;20067;48.764;9.176;2023-07-24T03:09:08;11.75;11.75;6.00
26185;PMS7003;20067;48.764;9.176;2023-07-24T03:11:33;13.25;12.00;6.00
26185;PMS7003;20067;48.764;9.176;2023-07-24T03:14:00;13.75;12.00;6.00
26185;PMS7003;20067;48.764;9.176;2023-07-24T03:16:26;13.75;13.00;7.00
26185;PMS7003;20067;48.764;9.176;2023-07-24T03:18:52;15.00;12.00;6.00
26185;PMS7003;20067;48.764;9.176;2023-07-24T03:21:18;15.00;12.50;7.00
26185;PMS7003;20067;48.764;9.176;2023-07-24T03:23:45;13.25;13.00;7.00
26185;PMS7003;20067;48.764;9.176;2023-07-24T03:26:11;11.75;11.50;6.25
26185;PMS7003;20067;48.764;9.176;2023-07-24T03:28:37;18.75;15.25;7.00
26185;PMS7003;20067;48.764;9.176;2023-07-24T03:31:03;15.75;13.25;7.00
26185;PMS7003;20067;48.764;9.176;2023-07-24T03:33:29;15.00;14.75;6.00
26185;PMS7003;20067;48.764;9.176;2023-07-24T03:35:54;16.25;14.00;7.00
26185;PMS7003;20067;48.764;9.176;2023-07-24T03:38:20;13.00;12.25;6.00
26185;PMS7003;20067;48.764;9.176;2023-07-24T03:40:45;17.00;17.00;7.00
26185;PMS7003;20067;48.764;9.176;2023-07-24T03:43:12;17.00;17.00;7.00
26185;PMS7003;20067;48.764;9.176;2023-07-24T03:45:38;13.50;12.00;5.25
26185;PMS7003;20067;48.764;9.176;2023-07-24T03:48:03;14.50;14.00;7.00
26185;PMS7003;20067;48.764;9.176;2023-07-24T03:50:29;15.75;15.00;8.00
26185;PMS7003;20067;48.764;9.176;2023-07-24T03:52:58;17.00;15.00;9.25
26185;PMS7003;20067;48.764;9.176;2023-07-24T03:55:25;18.75;15.75;6.75
26185;PMS7003;20067;48.764;9.176;2023-07-24T03:57:51;14.75;14.75;7.50
26185;PMS7003;20067;48.764;9.176;2023-07-24T04:00:18;15.00;14.50;7.00
26185;PMS7003;20067;48.764;9.176;2023-07-24T04:02:44;15.75;14.25;6.00
26185;PMS7003;20067;48.764;9.176;2023-07-24T04:05:10;15.25;12.00;6.75
26185;PMS7003;20067;48.764;9.176;2023-07-24T04:07:36;16.25;14.25;7.75
26185;PMS7003;20067;48.764;9.176;2023-07-24T04:10:02;18.75;16.00;10.00
26185;PMS7003;20067;48.764;9.176;2023-07-24T04:12:28;14.00;13.00;6.25
26185;PMS7003;20067;48.764;9.176;2023-07-24T04:14:54;16.50;16.50;9.75
26185;PMS7003;20067;48.764;9.176;2023-07-24T04:17:21;15.25;13.25;7.00
26185;PMS7003;20067;48.764;9.176;2023-07-24T04:19:47;15.75;12.75;6.00
26185;PMS7003;20067;48.764;9.176;2023-07-24T04:22:13;11.75;11.00;6.00
26185;PMS7003;20067;48.764;9.176;2023-07-24T04:24:38;16.25;13.00;6.00
26185;PMS7003;20067;48.764;9.176;2023-07-24T04:27:06;16.00;14.75;7.75
26185;PMS7003;20067;48.764;9.176;2023-07-24T04:29:33;13.50;12.25;6.00
26185;PMS7003;20067;48.764;9.176;2023-07-24T04:31:58;13.75;13.00;6.50
26185;PMS7003;20067;48.764;9.176;2023-07-24T04:34:24;16.00;14.50;6.50
26185;PMS7003;20067;48.764;9.176;2023-07-24T04:36:50;13.00;13.00;6.00
26185;PMS7003;20067;48.764;9.176;2023-07-24T04:39:16;14.00;12.00;6.00
26185;PMS7003;20067;48.764;9.176;2023-07-24T04:41:41;12.75;11.25;6.00
26185;PMS7003;20067;48.764;9.176;2023-07-24T04:44:10;12.25;10.50;5.00
26185;PMS7003;20067;48.764;9.176;2023-07-24T04:46:36;13.25;13.25;6.25
26185;PMS7003;20067;48.764;9.176;2023-07-24T04:49:02;16.25;15.00;6.25
26185;PMS7003;20067;48.764;9.176;2023-07-24T04:51:27;15.00;13.00;6.00
26185;PMS7003;20067;48.764;9.176;2023-07-24T04:53:53;12.50;12.25;4.25
26185;PMS7003;20067;48.764;9.176;2023-07-24T04:56:21;14.25;13.00;5.75
26185;PMS7003;20067;48.764;9.176;2023-07-24T04:58:48;14.25;13.00;6.75
26185;PMS7003;20067;48.764;9.176;2023-07-24T05:01:13;15.50;13.00;6.25
26185;PMS7003;20067;48.764;9.176;2023-07-24T05:03:39;14.25;14.25;7.00
26185;PMS7003;20067;48.764;9.176;2023-07-24T05:06:05;13.25;11.25;6.00
26185;PMS7003;20067;48.764;9.176;2023-07-24T05:08:30;15.25;12.50;6.50
26185;PMS7003;20067;48.764;9.176;2023-07-24T05:10:56;15.50;14.25;7.75
26185;PMS7003;20067;48.764;9.176;2023-07-24T05:13:23;15.50;13.00;7.00
26185;PMS7003;20067;48.764;9.176;2023-07-24T05:15:49;16.25;15.25;8.00
26185;PMS7003;20067;48.764;9.176;2023-07-24T05:18:15;16.00;14.50;7.00
26185;PMS7003;20067;48.764;9.176;2023-07-24T05:20:44;15.25;15.00;9.00
26185;PMS7003;20067;48.764;9.176;2023-07-24T05:23:13;14.75;14.00;8.00
26185;PMS7003;20067;48.764;9.176;2023-07-24T05:25:40;17.00;16.00;8.50
26185;PMS7003;20067;48.764;9.176;2023-07-24T05:28:06;16.25;13.00;6.75
26185;PMS7003;20067;48.764;9.176;2023-07-24T05:30:32;18.50;16.75;7.00
26185;PMS7003;20067;48.764;9.176;2023-07-24T05:32:58;20.50;17.00;8.75
26185;PMS7003;20067;48.764;9.176;2023-07-24T05:35:23;17.50;15.00;7.00
26185;PMS7003;20067;48.764;9.176;2023-07-24T05:37:49;18.00;14.00;7.00
26185;PMS7003;20067;48.764;9.176;2023-07-24T05:40:14;14.75;14.75;7.00
26185;PMS7003;20067;48.764;9.176;2023-07-24T05:42:40;16.00;15.00;7.50
26185;PMS7003;20067;48.764;9.176;2023-07-24T05:45:08;19.00;16.00;8.75
26185;PMS7003;20067;48.764;9.176;2023-07-24T05:47:36;17.75;16.75;8.00
26185;PMS7003;20067;48.764;9.176;2023-07-24T05:50:02;17.50;16.25;8.50
26185;PMS7003;20067;48.764;9.176;2023-07-24T05:52:28;18.25;14.00;8.00
26185;PMS7003;20067;48.764;9.176;2023-07-24T05:54:53;19.25;15.00;6.00
26185;PMS7003;20067;48.764;9.176;2023-07-24T05:57:19;21.00;16.75;8.50
26185;PMS7003;20067;48.764;9.176;2023-07-24T05:59:45;16.50;13.50;8.00
26185;PMS7003;20067;48.764;9.176;2023-07-24T06:02:11;16.00;15.50;8.75
26185;PMS7003;20067;48.764;9.176;2023-07-24T06:04:36;13.25;12.75;7.25
26185;PMS7003;20067;48.764;9.176;2023-07-24T06:07:02;17.25;15.75;8.75
26185;PMS7003;20067;48.764;9.176;2023-07-24T06:09:28;14.00;13.75;7.75
26185;PMS7003;20067;48.764;9.176;2023-07-24T06:11:53;15.00;14.25;8.00
26185;PMS7003;20067;48.764;9.176;2023-07-24T06:14:19;17.75;14.00;7.00
26185;PMS7003;20067;48.764;9.176;2023-07-24T06:16:45;19.75;16.00;7.75
26185;PMS7003;20067;48.764;9.176;2023-07-24T06:19:10;15.00;14.50;9.00
26185;PMS7003;20067;48.764;9.176;2023-07-24T06:21:36;18.50;15.25;10.25
26185;PMS7003;20067;48.764;9.176;2023-07-24T06:24:02;19.75;18.00;8.00
26185;PMS7003;20067;48.764;9.176;2023-07-24T06:26:28;16.00;14.00;8.25
26185;PMS7003;20067;48.764;9.176;2023-07-24T06:28:54;18.75;14.75;8.00
26185;PMS7003;20067;48.764;9.176;2023-07-24T06:31:20;18.75;14.00;7.00
26185;PMS7003;20067;48.764;9.176;2023-07-24T06:33:45;20.50;18.00;10.75
26185;PMS7003;20067;48.764;9.176;2023-07-24T06:36:11;16.75;14.75;7.75
26185;PMS7003;20067;48.764;9.176;2023-07-24T06:38:37;17.50;14.50;8.50
26185;PMS7003;20067;48.764;9.176;2023-07-24T06:41:03;18.75;17.25;8.75
26185;PMS7003;20067;48.764;9.176;2023-07-24T06:43:28;20.00;18.50;9.25
26185;PMS7003;20067;48.764;9.176;2023-07-24T06:45:54;17.00;16.75;11.00
26185;PMS7003;20067;48.764;9.176;2023-07-24T06:48:20;16.25;15.25;8.75
26185;PMS7003;20067;48.764;9.176;2023-07-24T06:50:45;18.75;15.75;8.00
26185;PMS7003;20067;48.764;9.176;2023-07-24T06:53:11;19.50;18.00;7.00
26185;PMS7003;20067;48.764;9.176;2023-07-24T06:55:36;19.50;16.00;8.00
26185;PMS7003;20067;48.764;9.176;2023-07-24T06:58:02;16.75;15.25;8.00
26185;PMS7003;20067;48.764;9.176;2023-07-24T07:00:27;20.75;14.50;7.75
26185;PMS7003;20067;48.764;9.176;2023-07-24T07:02:53;16.75;14.25;8.00
26185;PMS7003;20067;48.764;9.176;2023-07-24T07:05:19;15.25;14.75;8.00
26185;PMS7003;20067;48.764;9.176;2023-07-24T07:07:44;17.25;14.00;8.75
26185;PMS7003;20067;48.764;9.176;2023-07-24T07:10:10;17.50;15.75;8.00
26185;PMS7003;20067;48.764;9.176;2023-07-24T07:12:35;18.25;16.25;9.25
26185;PMS7003;20067;48.764;9.176;2023-07-24T07:15:01;20.00;16.75;9.00
26185;PMS7003;20067;48.764;9.176;2023-07-24T07:17:27;15.00;15.00;8.00
26185;PMS7003;20067;48.764;9.176;2023-07-24T07:19:53;17.25;15.75;8.50
26185;PMS7003;20067;48.764;9.176;2023-07-24T07:22:21;20.00;16.00;8.75
26185;PMS7003;20067;48.764;9.176;2023-07-24T07:24:46;15.75;15.00;9.00
26185;PMS7003;20067;48.764;9.176;2023-07-24T07:27:12;20.50;15.50;9.00
26185;PMS7003;20067;48.764;9.176;2023-07-24T07:29:42;21.50;17.00;8.25
26185;PMS7003;20067;48.764;9.176;2023-07-24T07:32:08;19.50;15.75;10.00
26185;PMS7003;20067;48.764;9.176;2023-07-24T07:34:33;19.25;18.00;9.00
26185;PMS7003;20067;48.764;9.176;2023-07-24T07:37:00;19.00;18.00;9.75
26185;PMS7003;20067;48.764;9.176;2023-07-24T07:39:26;17.50;15.75;7.75
26185;PMS7003;20067;48.764;9.176;2023-07-24T07:41:52;20.75;16.25;9.00
26185;PMS7003;20067;48.764;9.176;2023-07-24T07:44:17;17.50;14.00;8.00
26185;PMS7003;20067;48.764;9.176;2023-07-24T07:46:43;21.75;18.50;10.25
26185;PMS7003;20067;48.764;9.176;2023-07-24T07:49:08;17.00;16.00;9.50
26185;PMS7003;20067;48.764;9.176;2023-07-24T07:51:34;19.25;15.50;8.25
26185;PMS7003;20067;48.764;9.176;2023-07-24T07:54:00;17.00;14.75;8.00
26185;PMS7003;20067;48.764;9.176;2023-07-24T07:56:25;18.50;16.75;8.00
26185;PMS7003;20067;48.764;9.176;2023-07-24T07:58:51;19.25;14.00;8.00
26185;PMS7003;20067;48.764;9.176;2023-07-24T08:01:16;19.00;17.00;8.25
26185;PMS7003;20067;48.764;9.176;2023-07-24T08:03:42;18.25;15.25;8.00
26185;PMS7003;20067;48.764;9.176;2023-07-24T08:06:07;20.25;18.25;9.00
26185;PMS7003;20067;48.764;9.176;2023-07-24T08:08:33;21.00;17.50;8.00
26185;PMS7003;20067;48.764;9.176;2023-07-24T08:11:03;22.25;18.25;12.25
26185;PMS7003;20067;48.764;9.176;2023-07-24T08:13:30;18.50;17.25;9.00
26185;PMS7003;20067;48.764;9.176;2023-07-24T08:15:55;22.25;19.00;11.00
26185;PMS7003;20067;48.764;9.176;2023-07-24T08:18:21;18.00;17.00;10.00
26185;PMS7003;20067;48.764;9.176;2023-07-24T08:20:46;17.25;16.50;8.75
26185;PMS7003;20067;48.764;9.176;2023-07-24T08:23:12;19.25;17.25;9.25
26185;PMS7003;20067;48.764;9.176;2023-07-24T08:25:37;15.50;14.75;8.75
26185;PMS7003;20067;48.764;9.176;2023-07-24T08:28:03;20.50;19.00;9.25
26185;PMS7003;20067;48.764;9.176;2023-07-24T08:30:29;18.50;17.75;10.00
26185;PMS7003;20067;48.764;9.176;2023-07-24T08:32:56;20.50;15.00;8.00
26185;PMS7003;20067;48.764;9.176;2023-07-24T08:35:22;19.50;18.50;11.50
26185;PMS7003;20067;48.764;9.176;2023-07-24T08:37:48;19.00;18.00;9.75
26185;PMS7003;20067;48.764;9.176;2023-07-24T08:40:14;17.50;13.75;8.00
26185;PMS7003;20067;48.764;9.176;2023-07-24T08:42:43;18.50;14.75;9.00
26185;PMS7003;20067;48.764;9.176;2023-07-24T08:45:12;14.00;13.25;8.25
26185;PMS7003;20067;48.764;9.176;2023-07-24T08:47:41;16.00;14.00;8.00
26185;PMS7003;20067;48.764;9.176;2023-07-24T08:50:11;17.50;15.25;8.00
26185;PMS7003;20067;48.764;9.176;2023-07-24T08:52:40;16.50;16.50;9.00
26185;PMS7003;20067;48.764;9.176;2023-07-24T08:55:07;16.50;13.75;8.00
26185;PMS7003;20067;48.764;9.176;2023-07-24T08:57:33;14.75;13.50;8.00
26185;PMS7003;20067;48.764;9.176;2023-07-24T08:59:59;19.25;17.75;8.25
26185;PMS7003;20067;48.764;9.176;2023-07-24T09:02:29;16.25;15.50;8.25
26185;PMS7003;20067;48.764;9.176;2023-07-24T09:05:01;17.50;15.50;8.50
26185;PMS7003;20067;48.764;9.176;2023-07-24T09:07:29;15.75;13.75;7.75
26185;PMS7003;20067;48.764;9.176;2023-07-24T09:09:55;18.00;14.50;8.00
26185;PMS7003;20067;48.764;9.176;2023-07-24T09:12:21;17.25;14.00;8.00
26185;PMS7003;20067;48.764;9.176;2023-07-24T09:14:48;17.50;14.50;9.00
26185;PMS7003;20067;48.764;9.176;2023-07-24T09:17:14;14.00;13.50;7.00
26185;PMS7003;20067;48.764;9.176;2023-07-24T09:19:39;18.00;13.75;8.00
26185;PMS7003;20067;48.764;9.176;2023-07-24T09:22:12;19.75;14.50;8.50
26185;PMS7003;20067;48.764;9.176;2023-07-24T09:24:52;16.25;15.00;9.00
26185;PMS7003;20067;48.764;9.176;2023-07-24T09:27:19;15.75;13.00;8.00
26185;PMS7003;20067;48.764;9.176;2023-07-24T09:29:46;14.75;14.00;7.25
26185;PMS7003;20067;48.764;9.176;2023-07-24T09:32:19;13.50;12.25;6.75
26185;PMS7003;20067;48.764;9.176;2023-07-24T09:34:48;10.75;10.25;6.00
26185;PMS7003;20067;48.764;9.176;2023-07-24T09:37:22;15.75;13.75;6.50
26185;PMS7003;20067;48.764;9.176;2023-07-24T09:39:48;15.50;13.00;6.75
26185;PMS7003;20067;48.764;9.176;2023-07-24T09:42:13;12.00;12.00;7.00
26185;PMS7003;20067;48.764;9.176;2023-07-24T09:44:39;13.00;11.75;7.00
26185;PMS7003;20067;48.764;9.176;2023-07-24T09:47:05;14.00;13.00;6.00
26185;PMS7003;20067;48.764;9.176;2023-07-24T09:49:31;12.50;10.50;7.00
26185;PMS7003;20067;48.764;9.176;2023-07-24T09:51:57;18.75;14.25;8.00
26185;PMS7003;20067;48.764;9.176;2023-07-24T09:54:29;15.00;12.25;6.50
26185;PMS7003;20067;48.764;9.176;2023-07-24T09:57:05;14.75;12.75;6.75
26185;PMS7003;20067;48.764;9.176;2023-07-24T09:59:33;15.25;13.50;7.25
26185;PMS7003;20067;48.764;9.176;2023-07-24T10:02:00;11.25;10.75;6.00
26185;PMS7003;20067;48.764;9.176;2023-07-24T10:04:26;15.50;11.00;5.00
26185;PMS7003;20067;48.764;9.176;2023-07-24T10:06:52;12.75;11.75;7.00
26185;PMS7003;20067;48.764;9.176;2023-07-24T10:09:19;13.50;13.50;7.25
26185;PMS7003;20067;48.764;9.176;2023-07-24T10:11:47;18.00;13.75;8.00
26185;PMS7003;20067;48.764;9.176;2023-07-24T10:14:13;15.00;13.25;7.00
26185;PMS7003;20067;48.764;9.176;2023-07-24T10:16:39;17.50;16.00;8.75
26185;PMS7003;20067;48.764;9.176;2023-07-24T10:19:12;12.25;12.25;6.75
26185;PMS7003;20067;48.764;9.176;2023-07-24T10:21:44;15.25;14.50;7.25
26185;PMS7003;20067;48.764;9.176;2023-07-24T10:24:11;14.75;14.00;7.00
26185;PMS7003;20067;48.764;9.176;2023-07-24T10:26:37;16.75;14.00;8.00
26185;PMS7003;20067;48.764;9.176;2023-07-24T10:29:02;14.25;13.25;7.25
26185;PMS7003;20067;48.764;9.176;2023-07-24T10:31:28;15.50;15.00;9.25
26185;PMS7003;20067;48.764;9.176;2023-07-24T10:33:55;13.00;13.00;8.75
26185;PMS7003;20067;48.764;9.176;2023-07-24T10:36:22;16.75;14.25;8.00
26185;PMS7003;20067;48.764;9.176;2023-07-24T10:38:53;15.75;13.25;7.75
26185;PMS7003;20067;48.764;9.176;2023-07-24T10:41:19;15.50;13.75;8.00
26185;PMS7003;20067;48.764;9.176;2023-07-24T10:43:49;17.00;14.75;9.00
26185;PMS7003;20067;48.764;9.176;2023-07-24T10:46:16;16.50;14.00;7.00
26185;PMS7003;20067;48.764;9.176;2023-07-24T10:48:47;18.00;16.50;9.00
26185;PMS7003;20067;48.764;9.176;2023-07-24T10:51:16;17.75;17.75;11.25
26185;PMS7003;20067;48.764;9.176;2023-07-24T10:53:48;14.50;14.00;8.00
26185;PMS7003;20067;48.764;9.176;2023-07-24T10:56:15;16.25;16.25;11.25
26185;PMS7003;20067;48.764;9.176;2023-07-24T10:58:42;20.00;18.50;12.00
26185;PMS7003;20067;48.764;9.176;2023-07-24T11:01:08;23.00;19.25;13.00
26185;PMS7003;20067;48.764;9.176;2023-07-24T11:03:36;27.75;24.50;18.50
26185;PMS7003;20067;48.764;9.176;2023-07-24T11:06:03;39.00;35.00;26.75
26185;PMS7003;20067;48.764;9.176;2023-07-24T11:08:29;38.33;36.00;27.67
26185;PMS7003;20067;48.764;9.176;2023-07-24T11:10:56;41.67;38.33;30.00
26185;PMS7003;20067;48.764;9.176;2023-07-24T11:13:23;78.33;63.00;46.67
26185;PMS7003;20067;48.764;9.176;2023-07-24T11:15:51;41.67;39.00;31.00
26185;PMS7003;20067;48.764;9.176;2023-07-24T11:18:18;49.33;44.33;34.33
26185;PMS7003;20067;48.764;9.176;2023-07-24T11:20:50;50.00;42.67;32.00
26185;PMS7003;20067;48.764;9.176;2023-07-24T11:23:18;47.00;40.00;30.00
26185;PMS7003;20067;48.764;9.176;2023-07-24T11:25:43;47.33;41.67;32.00
26185;PMS7003;20067;48.764;9.176;2023-07-24T11:28:11;51.33;41.67;32.00
26185;PMS7003;20067;48.764;9.176;2023-07-24T11:30:37;44.00;41.00;32.00
26185;PMS7003;20067;48.764;9.176;2023-07-24T11:33:04;42.33;38.33;29.33
26185;PMS7003;20067;48.764;9.176;2023-07-24T11:35:32;41.67;39.67;29.33
26185;PMS7003;20067;48.764;9.176;2023-07-24T11:37:58;47.67;42.00;33.00
26185;PMS7003;20067;48.764;9.176;2023-07-24T11:40:34;49.67;44.33;34.00
26185;PMS7003;20067;48.764;9.176;2023-07-24T11:43:02;48.00;42.67;34.00
26185;PMS7003;20067;48.764;9.176;2023-07-24T11:45:29;56.33;45.67;36.00
26185;PMS7003;20067;48.764;9.176;2023-07-24T11:47:55;48.33;42.00;33.00
26185;PMS7003;20067;48.764;9.176;2023-07-24T11:50:21;42.67;39.67;30.00
26185;PMS7003;20067;48.764;9.176;2023-07-24T11:52:48;47.33;43.00;32.33
26185;PMS7003;20067;48.764;9.176;2023-07-24T11:55:39;35.33;33.33;26.33
26185;PMS7003;20067;48.764;9.176;2023-07-24T11:58:04;37.67;37.00;28.00
26185;PMS7003;20067;48.764;9.176;2023-07-24T12:00:32;38.67;34.33;27.00
26185;PMS7003;20067;48.764;9.176;2023-07-24T12:03:01;37.67;37.00;27.00
26185;PMS7003;20067;48.764;9.176;2023-07-24T12:05:29;36.67;34.33;26.33
26185;PMS7003;20067;48.764;9.176;2023-07-24T12:08:02;34.67;31.67;24.00
26185;PMS7003;20067;48.764;9.176;2023-07-24T12:12:57;38.00;32.00;24.00
26185;PMS7003;20067;48.764;9.176;2023-07-24T12:15:25;32.50;30.75;24.00
26185;PMS7003;20067;48.764;9.176;2023-07-24T12:17:51;34.33;34.00;27.00
26185;PMS7003;20067;48.764;9.176;2023-07-24T12:20:17;36.00;34.00;27.33
26185;PMS7003;20067;48.764;9.176;2023-07-24T12:22:43;35.67;34.33;25.33
26185;PMS7003;20067;48.764;9.176;2023-07-24T12:25:08;36.75;33.00;25.00
26185;PMS7003;20067;48.764;9.176;2023-07-24T12:27:34;32.25;32.25;24.50
26185;PMS7003;20067;48.764;9.176;2023-07-24T12:30:00;26.25;26.00;20.50
26185;PMS7003;20067;48.764;9.176;2023-07-24T12:32:26;27.00;26.25;19.50
26185;PMS7003;20067;48.764;9.176;2023-07-24T12:34:52;27.00;25.00;19.25
26185;PMS7003;20067;48.764;9.176;2023-07-24T12:37:18;27.50;23.00;18.00
26185;PMS7003;20067;48.764;9.176;2023-07-24T12:39:45;26.75;24.00;17.00
26185;PMS7003;20067;48.764;9.176;2023-07-24T12:42:12;25.25;25.25;18.50
26185;PMS7003;20067;48.764;9.176;2023-07-24T12:44:38;23.75;22.25;16.25
26185;PMS7003;20067;48.764;9.176;2023-07-24T12:47:04;23.50;21.00;14.50
26185;PMS7003;20067;48.764;9.176;2023-07-24T12:49:30;28.00;24.00;18.00
26185;PMS7003;20067;48.764;9.176;2023-07-24T12:51:56;23.00;22.25;17.00
26185;PMS7003;20067;48.764;9.176;2023-07-24T12:54:22;19.75;18.75;13.50
26185;PMS7003;20067;48.764;9.176;2023-07-24T12:56:49;23.25;18.00;12.00
26185;PMS7003;20067;48.764;9.176;2023-07-24T12:59:15;15.00;14.50;9.00
26185;PMS7003;20067;48.764;9.176;2023-07-24T13:01:41;15.25;14.25;10.00
26185;PMS7003;20067;48.764;9.176;2023-07-24T13:04:07;13.25;13.25;8.25
26185;PMS7003;20067;48.764;9.176;2023-07-24T13:06:33;16.00;15.25;9.25
26185;PMS7003;20067;48.764;9.176;2023-07-24T13:08:59;14.00;14.00;9.25
26185;PMS7003;20067;48.764;9.176;2023-07-24T13:11:25;16.50;15.25;9.00
26185;PMS7003;20067;48.764;9.176;2023-07-24T13:13:53;17.00;15.25;9.00
26185;PMS7003;20067;48.764;9.176;2023-07-24T13:16:20;17.00;16.00;9.75
26185;PMS7003;20067;48.764;9.176;2023-07-24T13:18:46;16.75;16.25;10.00
26185;PMS7003;20067;48.764;9.176;2023-07-24T13:21:12;16.00;16.00;8.25
26185;PMS7003;20067;48.764;9.176;2023-07-24T13:23:39;11.25;11.25;6.50
26185;PMS7003;20067;48.764;9.176;2023-07-24T13:26:05;14.75;12.50;8.00
26185;PMS7003;20067;48.764;9.176;2023-07-24T13:28:30;12.00;11.00;5.50
26185;PMS7003;20067;48.764;9.176;2023-07-24T13:30:56;10.50;10.00;5.00
26185;PMS7003;20067;48.764;9.176;2023-07-24T13:33:22;12.50;10.25;5.00
26185;PMS7003;20067;48.764;9.176;2023-07-24T13:35:48;13.50;12.25;6.00
26185;PMS7003;20067;48.764;9.176;2023-07-24T13:38:15;9.00;9.00;5.00
26185;PMS7003;20067;48.764;9.176;2023-07-24T13:40:41;12.25;12.00;5.00
26185;PMS7003;20067;48.764;9.176;2023-07-24T13:43:07;13.00;12.75;6.00
26185;PMS7003;20067;48.764;9.176;2023-07-24T13:45:33;10.25;10.00;5.25
26185;PMS7003;20067;48.764;9.176;2023-07-24T13:47:58;9.00;9.00;4.00
26185;PMS7003;20067;48.764;9.176;2023-07-24T13:50:24;10.75;9.00;4.75
26185;PMS7003;20067;48.764;9.176;2023-07-24T13:52:50;17.75;12.00;6.00
26185;PMS7003;20067;48.764;9.176;2023-07-24T13:55:15;10.50;10.00;5.00
26185;PMS7003;20067;48.764;9.176;2023-07-24T13:57:41;12.75;10.00;4.50
26185;PMS7003;20067;48.764;9.176;2023-07-24T14:00:07;12.00;11.00;6.00